sensor_id;sensor_type;location;lat;lon;timestamp;pressure;altitude;pressure_sealevel;temperature;humidity
46045;BME280;31781;54.094;13.428;2023-01-29T00:00:00;102531.44;;;2.73;76.20
46045;BME280;31781;54.094;13.428;2023-01-29T00:02:02;102529.59;;;2.73;76.47
46045;BME280;31781;54.094;13.428;2023-01-29T00:04:04;102534.84;;;2.75;76.79
46045;BME280;31781;54.094;13.428;2023-01-29T00:06:07;102540.22;;;2.75;77.42
46045;BME280;31781;54.094;13.428;2023-01-29T00:08:09;102542.81;;;2.76;76.98
46045;BME280;31781;54.094;13.428;2023-01-29T00:10:11;102535.59;;;2.77;76.46
46045;BME280;31781;54.094;13.428;2023-01-29T00:12:14;102531.06;;;2.77;76.86
46045;BME280;31781;54.094;13.428;2023-01-29T00:14:16;102529.25;;;2.78;77.22
46045;BME280;31781;54.094;13.428;2023-01-29T00:16:18;102529.38;;;2.76;77.04
46045;BME280;31781;54.094;13.428;2023-01-29T00:18:20;102533.66;;;2.79;77.31
46045;BME280;31781;54.094;13.428;2023-01-29T00:20:22;102518.38;;;2.79;77.30
46045;BME280;31781;54.094;13.428;2023-01-29T00:22:23;102522.03;;;2.78;77.46
46045;BME280;31781;54.094;13.428;2023-01-29T00:24:25;102522.78;;;2.80;78.01
46045;BME280;31781;54.094;13.428;2023-01-29T00:26:27;102515.56;;;2.81;77.71
46045;BME280;31781;54.094;13.428;2023-01-29T00:28:31;102522.66;;;2.82;77.95
46045;BME280;31781;54.094;13.428;2023-01-29T00:30:34;102513.72;;;2.81;78.45
46045;BME280;31781;54.094;13.428;2023-01-29T00:32:35;102510.94;;;2.83;77.82
46045;BME280;31781;54.094;13.428;2023-01-29T00:34:37;102502.13;;;2.81;77.90
46045;BME280;31781;54.094;13.428;2023-01-29T00:36:39;102493.09;;;2.82;78.35
46045;BME280;31781;54.094;13.428;2023-01-29T00:38:41;102496.53;;;2.84;77.70
46045;BME280;31781;54.094;13.428;2023-01-29T00:40:43;102484.78;;;2.85;78.13
46045;BME280;31781;54.094;13.428;2023-01-29T00:42:45;102486.50;;;2.86;78.04
46045;BME280;31781;54.094;13.428;2023-01-29T00:44:47;102494.72;;;2.84;78.95
46045;BME280;31781;54.094;13.428;2023-01-29T00:46:49;102485.66;;;2.85;78.48
46045;BME280;31781;54.094;13.428;2023-01-29T00:48:51;102483.97;;;2.84;78.76
46045;BME280;31781;54.094;13.428;2023-01-29T00:50:52;102482.97;;;2.85;79.07
46045;BME280;31781;54.094;13.428;2023-01-29T00:52:54;102483.72;;;2.87;78.51
46045;BME280;31781;54.094;13.428;2023-01-29T00:54:57;102490.78;;;2.88;78.64
46045;BME280;31781;54.094;13.428;2023-01-29T00:57:01;102488.00;;;2.90;78.28
46045;BME280;31781;54.094;13.428;2023-01-29T00:59:03;102486.16;;;2.90;79.08
46045;BME280;31781;54.094;13.428;2023-01-29T01:01:06;102485.19;;;2.91;78.61
46045;BME280;31781;54.094;13.428;2023-01-29T01:03:08;102475.28;;;2.92;79.22
46045;BME280;31781;54.094;13.428;2023-01-29T01:05:12;102485.19;;;2.91;79.42
46045;BME280;31781;54.094;13.428;2023-01-29T01:07:14;102486.91;;;2.92;79.38
46045;BME280;31781;54.094;13.428;2023-01-29T01:09:16;102491.31;;;2.93;79.00
46045;BME280;31781;54.094;13.428;2023-01-29T01:11:19;102495.72;;;2.94;79.04
46045;BME280;31781;54.094;13.428;2023-01-29T01:13:20;102498.28;;;2.96;78.63
46045;BME280;31781;54.094;13.428;2023-01-29T01:15:25;102499.13;;;2.97;78.99
46045;BME280;31781;54.094;13.428;2023-01-29T01:17:29;102490.09;;;2.98;78.83
46045;BME280;31781;54.094;13.428;2023-01-29T01:19:32;102499.88;;;2.99;79.19
46045;BME280;31781;54.094;13.428;2023-01-29T01:21:34;102497.19;;;2.99;79.06
46045;BME280;31781;54.094;13.428;2023-01-29T01:23:36;102496.19;;;3.00;79.13
46045;BME280;31781;54.094;13.428;2023-01-29T01:25:39;102490.72;;;3.01;78.64
46045;BME280;31781;54.094;13.428;2023-01-29T01:27:41;102486.22;;;3.02;79.14
46045;BME280;31781;54.094;13.428;2023-01-29T01:29:43;102497.69;;;3.04;78.81
46045;BME280;31781;54.094;13.428;2023-01-29T01:31:44;102490.47;;;3.04;78.61
46045;BME280;31781;54.094;13.428;2023-01-29T01:33:48;102489.50;;;3.05;78.87
46045;BME280;31781;54.094;13.428;2023-01-29T01:35:50;102492.19;;;3.05;78.60
46045;BME280;31781;54.094;13.428;2023-01-29T01:37:51;102482.31;;;3.06;79.04
46045;BME280;31781;54.094;13.428;2023-01-29T01:39:53;102480.34;;;3.08;78.98
46045;BME280;31781;54.094;13.428;2023-01-29T01:41:55;102476.69;;;3.09;79.35
46045;BME280;31781;54.094;13.428;2023-01-29T01:43:59;102480.25;;;3.09;79.73
46045;BME280;31781;54.094;13.428;2023-01-29T01:46:01;102479.28;;;3.10;80.12
46045;BME280;31781;54.094;13.428;2023-01-29T01:48:05;102471.19;;;3.10;79.61
46045;BME280;31781;54.094;13.428;2023-01-29T01:50:12;102466.66;;;3.11;79.47
46045;BME280;31781;54.094;13.428;2023-01-29T01:52:16;102468.38;;;3.12;78.73
46045;BME280;31781;54.094;13.428;2023-01-29T01:54:23;102471.81;;;3.14;78.85
46045;BME280;31781;54.094;13.428;2023-01-29T01:56:29;102467.28;;;3.14;78.95
46045;BME280;31781;54.094;13.428;2023-01-29T01:58:36;102471.69;;;3.15;78.75
46045;BME280;31781;54.094;13.428;2023-01-29T02:00:40;102466.31;;;3.15;78.51
46045;BME280;31781;54.094;13.428;2023-01-29T02:02:44;102464.47;;;3.16;78.85
46045;BME280;31781;54.094;13.428;2023-01-29T02:04:47;102473.41;;;3.16;79.16
46045;BME280;31781;54.094;13.428;2023-01-29T02:06:52;102465.34;;;3.16;80.08
46045;BME280;31781;54.094;13.428;2023-01-29T02:08:59;102466.19;;;3.17;79.81
46045;BME280;31781;54.094;13.428;2023-01-29T02:11:04;102470.63;;;3.18;79.43
46045;BME280;31781;54.094;13.428;2023-01-29T02:13:06;102468.75;;;3.18;79.79
46045;BME280;31781;54.094;13.428;2023-01-29T02:15:09;102463.38;;;3.18;80.03
46045;BME280;31781;54.094;13.428;2023-01-29T02:17:13;102459.59;;;3.21;79.52
46045;BME280;31781;54.094;13.428;2023-01-29T02:19:24;102442.59;;;3.20;80.19
46045;BME280;31781;54.094;13.428;2023-01-29T02:21:45;102437.09;;;3.22;79.60
46045;BME280;31781;54.094;13.428;2023-01-29T02:24:29;102436.00;;;3.24;79.63
46045;BME280;31781;54.094;13.428;2023-01-29T02:26:49;102435.16;;;3.24;79.94
46045;BME280;31781;54.094;13.428;2023-01-29T02:29:00;102429.88;;;3.22;79.91
46045;BME280;31781;54.094;13.428;2023-01-29T02:31:11;102434.41;;;3.22;80.80
46045;BME280;31781;54.094;13.428;2023-01-29T02:33:25;102423.63;;;3.22;80.06
46045;BME280;31781;54.094;13.428;2023-01-29T02:35:34;102431.72;;;3.22;79.87
46045;BME280;31781;54.094;13.428;2023-01-29T02:37:49;102417.28;;;3.23;79.69
46045;BME280;31781;54.094;13.428;2023-01-29T02:40:00;102411.06;;;3.22;80.40
46045;BME280;31781;54.094;13.428;2023-01-29T02:42:22;102407.41;;;3.23;79.86
46045;BME280;31781;54.094;13.428;2023-01-29T02:44:33;102402.00;;;3.23;79.71
46045;BME280;31781;54.094;13.428;2023-01-29T02:46:43;102415.34;;;3.25;79.80
46045;BME280;31781;54.094;13.428;2023-01-29T02:48:54;102402.72;;;3.25;80.33
46045;BME280;31781;54.094;13.428;2023-01-29T02:51:01;102400.91;;;3.26;81.07
46045;BME280;31781;54.094;13.428;2023-01-29T02:53:08;102397.34;;;3.25;80.38
46045;BME280;31781;54.094;13.428;2023-01-29T02:55:20;102398.09;;;3.27;80.44
46045;BME280;31781;54.094;13.428;2023-01-29T02:57:27;102392.72;;;3.27;79.94
46045;BME280;31781;54.094;13.428;2023-01-29T02:59:36;102390.03;;;3.27;80.67
46045;BME280;31781;54.094;13.428;2023-01-29T03:01:44;102397.97;;;3.29;80.40
46045;BME280;31781;54.094;13.428;2023-01-29T03:03:51;102389.91;;;3.29;80.79
46045;BME280;31781;54.094;13.428;2023-01-29T03:05:58;102388.81;;;3.31;80.49
46045;BME280;31781;54.094;13.428;2023-01-29T03:08:07;102385.28;;;3.31;80.55
46045;BME280;31781;54.094;13.428;2023-01-29T03:12:20;102390.53;;;3.32;80.51
46045;BME280;31781;54.094;13.428;2023-01-29T03:14:30;102397.50;;;3.35;80.71
46045;BME280;31781;54.094;13.428;2023-01-29T03:16:38;102405.56;;;3.35;80.92
46045;BME280;31781;54.094;13.428;2023-01-29T03:18:43;102407.28;;;3.36;80.46
46045;BME280;31781;54.094;13.428;2023-01-29T03:20:50;102402.75;;;3.36;80.29
46045;BME280;31781;54.094;13.428;2023-01-29T03:22:57;102399.09;;;3.37;80.64
46045;BME280;31781;54.094;13.428;2023-01-29T03:25:05;102390.03;;;3.38;80.98
46045;BME280;31781;54.094;13.428;2023-01-29T03:27:11;102382.84;;;3.39;80.44
46045;BME280;31781;54.094;13.428;2023-01-29T03:29:15;102388.06;;;3.40;80.18
46045;BME280;31781;54.094;13.428;2023-01-29T03:31:17;102393.44;;;3.40;80.59
46045;BME280;31781;54.094;13.428;2023-01-29T03:33:23;102396.03;;;3.42;80.51
46045;BME280;31781;54.094;13.428;2023-01-29T03:35:28;102390.66;;;3.42;80.50
46045;BME280;31781;54.094;13.428;2023-01-29T03:37:38;102395.06;;;3.43;80.51
46045;BME280;31781;54.094;13.428;2023-01-29T03:39:41;102394.91;;;3.44;80.05
46045;BME280;31781;54.094;13.428;2023-01-29T03:41:47;102387.72;;;3.45;80.67
46045;BME280;31781;54.094;13.428;2023-01-29T03:44:02;102386.84;;;3.44;80.58
46045;BME280;31781;54.094;13.428;2023-01-29T03:46:16;102394.81;;;3.46;80.86
46045;BME280;31781;54.094;13.428;2023-01-29T03:48:29;102395.66;;;3.47;80.52
46045;BME280;31781;54.094;13.428;2023-01-29T03:50:38;102401.91;;;3.47;80.54
46045;BME280;31781;54.094;13.428;2023-01-29T03:52:47;102399.06;;;3.49;80.66
46045;BME280;31781;54.094;13.428;2023-01-29T03:54:57;102394.56;;;3.49;80.87
46045;BME280;31781;54.094;13.428;2023-01-29T03:57:07;102387.44;;;3.48;80.29
46045;BME280;31781;54.094;13.428;2023-01-29T03:59:20;102392.59;;;3.51;81.07
46045;BME280;31781;54.094;13.428;2023-01-29T04:01:28;102395.28;;;3.51;80.74
46045;BME280;31781;54.094;13.428;2023-01-29T04:03:36;102394.31;;;3.52;80.94
46045;BME280;31781;54.094;13.428;2023-01-29T04:05:44;102395.28;;;3.51;81.11
46045;BME280;31781;54.094;13.428;2023-01-29T04:07:50;102401.41;;;3.53;81.09
46045;BME280;31781;54.094;13.428;2023-01-29T04:09:58;102399.56;;;3.54;80.75
46045;BME280;31781;54.094;13.428;2023-01-29T04:12:06;102395.06;;;3.54;81.07
46045;BME280;31781;54.094;13.428;2023-01-29T04:14:08;102394.06;;;3.55;80.99
46045;BME280;31781;54.094;13.428;2023-01-29T04:16:15;102383.19;;;3.57;81.06
46045;BME280;31781;54.094;13.428;2023-01-29T04:18:18;102381.34;;;3.57;81.57
46045;BME280;31781;54.094;13.428;2023-01-29T04:20:22;102384.75;;;3.59;81.44
46045;BME280;31781;54.094;13.428;2023-01-29T04:22:30;102373.88;;;3.61;81.04
46045;BME280;31781;54.094;13.428;2023-01-29T04:24:33;102373.88;;;3.61;81.23
46045;BME280;31781;54.094;13.428;2023-01-29T04:26:49;102362.84;;;3.64;80.68
46045;BME280;31781;54.094;13.428;2023-01-29T04:29:08;102366.41;;;3.64;81.27
46045;BME280;31781;54.094;13.428;2023-01-29T04:31:13;102360.06;;;3.65;81.45
46045;BME280;31781;54.094;13.428;2023-01-29T04:33:21;102361.88;;;3.65;81.66
46045;BME280;31781;54.094;13.428;2023-01-29T04:35:31;102365.28;;;3.67;81.79
46045;BME280;31781;54.094;13.428;2023-01-29T04:37:41;102370.56;;;3.68;81.35
46045;BME280;31781;54.094;13.428;2023-01-29T04:39:53;102360.78;;;3.67;82.06
46045;BME280;31781;54.094;13.428;2023-01-29T04:42:03;102356.97;;;3.70;81.04
46045;BME280;31781;54.094;13.428;2023-01-29T04:44:13;102352.44;;;3.70;81.68
46045;BME280;31781;54.094;13.428;2023-01-29T04:46:19;102356.84;;;3.71;81.60
46045;BME280;31781;54.094;13.428;2023-01-29T04:48:25;102355.13;;;3.70;81.81
46045;BME280;31781;54.094;13.428;2023-01-29T04:50:35;102349.75;;;3.70;81.58
46045;BME280;31781;54.094;13.428;2023-01-29T04:52:44;102350.34;;;3.74;81.09
46045;BME280;31781;54.094;13.428;2023-01-29T04:54:56;102348.66;;;3.73;81.79
46045;BME280;31781;54.094;13.428;2023-01-29T04:57:07;102347.66;;;3.74;81.19
46045;BME280;31781;54.094;13.428;2023-01-29T04:59:13;102339.47;;;3.75;81.21
46045;BME280;31781;54.094;13.428;2023-01-29T05:01:18;102348.41;;;3.76;81.34
46045;BME280;31781;54.094;13.428;2023-01-29T05:03:23;102341.19;;;3.76;81.80
46045;BME280;31781;54.094;13.428;2023-01-29T05:05:27;102347.44;;;3.77;80.99
46045;BME280;31781;54.094;13.428;2023-01-29T05:07:34;102349.13;;;3.78;81.39
46045;BME280;31781;54.094;13.428;2023-01-29T05:09:38;102340.06;;;3.79;81.78
46045;BME280;31781;54.094;13.428;2023-01-29T05:11:40;102340.06;;;3.79;81.77
46045;BME280;31781;54.094;13.428;2023-01-29T05:13:43;102327.31;;;3.81;81.35
46045;BME280;31781;54.094;13.428;2023-01-29T05:15:48;102330.03;;;3.81;81.38
46045;BME280;31781;54.094;13.428;2023-01-29T05:17:51;102318.28;;;3.82;81.77
46045;BME280;31781;54.094;13.428;2023-01-29T05:19:54;102324.63;;;3.81;81.97
46045;BME280;31781;54.094;13.428;2023-01-29T05:21:57;102324.53;;;3.82;82.25
46045;BME280;31781;54.094;13.428;2023-01-29T05:24:08;102322.53;;;3.84;81.24
46045;BME280;31781;54.094;13.428;2023-01-29T05:26:09;102311.78;;;3.84;82.09
46045;BME280;31781;54.094;13.428;2023-01-29T05:28:11;102326.09;;;3.85;81.67
46045;BME280;31781;54.094;13.428;2023-01-29T05:30:13;102314.47;;;3.84;82.15
46045;BME280;31781;54.094;13.428;2023-01-29T05:32:15;102314.34;;;3.86;81.75
46045;BME280;31781;54.094;13.428;2023-01-29T05:34:17;102299.91;;;3.87;82.43
46045;BME280;31781;54.094;13.428;2023-01-29T05:36:18;102293.56;;;3.88;81.70
46045;BME280;31781;54.094;13.428;2023-01-29T05:38:20;102297.06;;;3.88;82.13
46045;BME280;31781;54.094;13.428;2023-01-29T05:40:24;102294.25;;;3.90;81.58
46045;BME280;31781;54.094;13.428;2023-01-29T05:42:26;102304.19;;;3.89;82.13
46045;BME280;31781;54.094;13.428;2023-01-29T05:44:27;102300.50;;;3.90;82.56
46045;BME280;31781;54.094;13.428;2023-01-29T05:46:29;102299.53;;;3.91;82.50
46045;BME280;31781;54.094;13.428;2023-01-29T05:48:30;102297.66;;;3.92;82.28
46045;BME280;31781;54.094;13.428;2023-01-29T05:50:32;102283.38;;;3.91;82.41
46045;BME280;31781;54.094;13.428;2023-01-29T05:52:34;102288.63;;;3.93;82.38
46045;BME280;31781;54.094;13.428;2023-01-29T05:54:36;102282.25;;;3.94;81.37
46045;BME280;31781;54.094;13.428;2023-01-29T05:56:39;102282.38;;;3.92;82.16
46045;BME280;31781;54.094;13.428;2023-01-29T05:58:41;102295.72;;;3.94;82.27
46045;BME280;31781;54.094;13.428;2023-01-29T06:00:43;102307.34;;;3.95;81.45
46045;BME280;31781;54.094;13.428;2023-01-29T06:02:44;102314.44;;;3.96;81.34
46045;BME280;31781;54.094;13.428;2023-01-29T06:04:46;102300.00;;;3.97;81.85
46045;BME280;31781;54.094;13.428;2023-01-29T06:06:47;102298.16;;;3.97;82.35
46045;BME280;31781;54.094;13.428;2023-01-29T06:08:49;102307.09;;;3.98;81.62
46045;BME280;31781;54.094;13.428;2023-01-29T06:10:51;102297.03;;;4.00;82.08
46045;BME280;31781;54.094;13.428;2023-01-29T06:12:55;102302.56;;;3.98;82.23
46045;BME280;31781;54.094;13.428;2023-01-29T06:14:57;102310.66;;;3.98;81.75
46045;BME280;31781;54.094;13.428;2023-01-29T06:16:59;102314.91;;;4.01;81.81
46045;BME280;31781;54.094;13.428;2023-01-29T06:19:00;102313.19;;;4.00;81.73
46045;BME280;31781;54.094;13.428;2023-01-29T06:21:03;102296.91;;;4.01;82.16
46045;BME280;31781;54.094;13.428;2023-01-29T06:23:05;102285.28;;;4.01;82.21
46045;BME280;31781;54.094;13.428;2023-01-29T06:25:07;102281.47;;;4.03;81.75
46045;BME280;31781;54.094;13.428;2023-01-29T06:27:09;102280.63;;;4.03;82.40
46045;BME280;31781;54.094;13.428;2023-01-29T06:29:13;102275.09;;;4.04;81.63
46045;BME280;31781;54.094;13.428;2023-01-29T06:31:15;102275.09;;;4.04;81.73
46045;BME280;31781;54.094;13.428;2023-01-29T06:33:36;102244.50;;;4.05;81.62
46045;BME280;31781;54.094;13.428;2023-01-29T06:35:38;102251.59;;;4.06;81.69
46045;BME280;31781;54.094;13.428;2023-01-29T06:37:40;102251.59;;;4.06;82.02
46045;BME280;31781;54.094;13.428;2023-01-29T06:39:42;102257.81;;;4.07;81.60
46045;BME280;31781;54.094;13.428;2023-01-29T06:41:45;102256.00;;;4.07;82.27
46045;BME280;31781;54.094;13.428;2023-01-29T06:43:46;102250.47;;;4.09;81.67
46045;BME280;31781;54.094;13.428;2023-01-29T06:45:51;102249.50;;;4.10;81.71
46045;BME280;31781;54.094;13.428;2023-01-29T06:47:53;102233.34;;;4.10;81.93
46045;BME280;31781;54.094;13.428;2023-01-29T06:49:54;102250.47;;;4.09;81.64
46045;BME280;31781;54.094;13.428;2023-01-29T06:51:56;102257.44;;;4.11;81.42
46045;BME280;31781;54.094;13.428;2023-01-29T06:53:58;102263.69;;;4.12;82.03
46045;BME280;31781;54.094;13.428;2023-01-29T06:56:00;102259.16;;;4.12;82.44
46045;BME280;31781;54.094;13.428;2023-01-29T06:58:04;102259.88;;;4.14;82.13
46045;BME280;31781;54.094;13.428;2023-01-29T07:00:07;102264.44;;;4.14;82.02
46045;BME280;31781;54.094;13.428;2023-01-29T07:02:11;102260.72;;;4.15;82.44
46045;BME280;31781;54.094;13.428;2023-01-29T07:04:13;102269.53;;;4.17;81.62
46045;BME280;31781;54.094;13.428;2023-01-29T07:06:14;102258.78;;;4.17;81.67
46045;BME280;31781;54.094;13.428;2023-01-29T07:08:18;102259.47;;;4.19;81.90
46045;BME280;31781;54.094;13.428;2023-01-29T07:10:20;102253.22;;;4.18;82.99
46045;BME280;31781;54.094;13.428;2023-01-29T07:12:22;102254.94;;;4.19;82.84
46045;BME280;31781;54.094;13.428;2023-01-29T07:14:24;102254.84;;;4.21;81.91
46045;BME280;31781;54.094;13.428;2023-01-29T07:16:25;102239.50;;;4.21;81.98
46045;BME280;31781;54.094;13.428;2023-01-29T07:18:31;102241.22;;;4.22;81.95
46045;BME280;31781;54.094;13.428;2023-01-29T07:20:32;102244.78;;;4.23;81.79
46045;BME280;31781;54.094;13.428;2023-01-29T07:22:34;102254.56;;;4.24;82.04
46045;BME280;31781;54.094;13.428;2023-01-29T07:24:36;102246.47;;;4.24;81.96
46045;BME280;31781;54.094;13.428;2023-01-29T07:26:37;102240.25;;;4.23;82.54
46045;BME280;31781;54.094;13.428;2023-01-29T07:28:39;102240.94;;;4.25;81.75
46045;BME280;31781;54.094;13.428;2023-01-29T07:30:41;102246.22;;;4.27;81.74
46045;BME280;31781;54.094;13.428;2023-01-29T07:32:42;102222.81;;;4.27;81.80
46045;BME280;31781;54.094;13.428;2023-01-29T07:34:45;102228.22;;;4.27;82.39
46045;BME280;31781;54.094;13.428;2023-01-29T07:36:47;102229.78;;;4.30;81.79
46045;BME280;31781;54.094;13.428;2023-01-29T07:38:49;102240.44;;;4.31;82.27
46045;BME280;31781;54.094;13.428;2023-01-29T07:40:51;102234.19;;;4.31;81.47
46045;BME280;31781;54.094;13.428;2023-01-29T07:42:56;102230.38;;;4.33;82.13
46045;BME280;31781;54.094;13.428;2023-01-29T07:44:58;102218.63;;;4.34;81.65
46045;BME280;31781;54.094;13.428;2023-01-29T07:47:00;102213.22;;;4.34;81.24
46045;BME280;31781;54.094;13.428;2023-01-29T07:49:02;102218.50;;;4.36;81.36
46045;BME280;31781;54.094;13.428;2023-01-29T07:51:05;102210.41;;;4.36;81.83
46045;BME280;31781;54.094;13.428;2023-01-29T07:53:11;102204.00;;;4.37;81.66
46045;BME280;31781;54.094;13.428;2023-01-29T07:55:14;102202.06;;;4.39;81.87
46045;BME280;31781;54.094;13.428;2023-01-29T07:57:15;102189.28;;;4.41;81.27
46045;BME280;31781;54.094;13.428;2023-01-29T07:59:17;102199.19;;;4.40;81.89
46045;BME280;31781;54.094;13.428;2023-01-29T08:01:19;102188.16;;;4.43;81.46
46045;BME280;31781;54.094;13.428;2023-01-29T08:03:21;102197.94;;;4.45;81.30
46045;BME280;31781;54.094;13.428;2023-01-29T08:05:22;102200.66;;;4.45;81.43
46045;BME280;31781;54.094;13.428;2023-01-29T08:07:25;102202.38;;;4.46;81.58
46045;BME280;31781;54.094;13.428;2023-01-29T08:09:27;102206.63;;;4.48;82.05
46045;BME280;31781;54.094;13.428;2023-01-29T08:11:29;102210.19;;;4.49;81.45
46045;BME280;31781;54.094;13.428;2023-01-29T08:13:31;102220.97;;;4.49;81.82
46045;BME280;31781;54.094;13.428;2023-01-29T08:15:33;102226.06;;;4.52;81.39
46045;BME280;31781;54.094;13.428;2023-01-29T08:17:39;102234.03;;;4.53;81.08
46045;BME280;31781;54.094;13.428;2023-01-29T08:19:57;102238.28;;;4.56;81.64
46045;BME280;31781;54.094;13.428;2023-01-29T08:22:00;102238.19;;;4.57;81.12
46045;BME280;31781;54.094;13.428;2023-01-29T08:24:04;102222.88;;;4.58;81.21
46045;BME280;31781;54.094;13.428;2023-01-29T08:26:06;102226.25;;;4.60;81.07
46045;BME280;31781;54.094;13.428;2023-01-29T08:28:08;102215.47;;;4.60;82.14
46045;BME280;31781;54.094;13.428;2023-01-29T08:30:11;102206.25;;;4.62;80.80
46045;BME280;31781;54.094;13.428;2023-01-29T08:32:13;102210.69;;;4.63;81.14
46045;BME280;31781;54.094;13.428;2023-01-29T08:34:15;102215.09;;;4.64;80.83
46045;BME280;31781;54.094;13.428;2023-01-29T08:36:16;102210.56;;;4.65;81.96
46045;BME280;31781;54.094;13.428;2023-01-29T08:38:18;102209.53;;;4.66;81.20
46045;BME280;31781;54.094;13.428;2023-01-29T08:40:21;102204.88;;;4.68;81.81
46045;BME280;31781;54.094;13.428;2023-01-29T08:42:23;102209.28;;;4.69;81.63
46045;BME280;31781;54.094;13.428;2023-01-29T08:44:25;102210.84;;;4.71;81.33
46045;BME280;31781;54.094;13.428;2023-01-29T08:46:26;102215.13;;;4.74;80.84
46045;BME280;31781;54.094;13.428;2023-01-29T08:48:29;102198.94;;;4.74;81.31
46045;BME280;31781;54.094;13.428;2023-01-29T08:50:30;102195.25;;;4.75;81.17
46045;BME280;31781;54.094;13.428;2023-01-29T08:52:32;102186.19;;;4.76;81.06
46045;BME280;31781;54.094;13.428;2023-01-29T08:54:34;102184.47;;;4.75;81.46
46045;BME280;31781;54.094;13.428;2023-01-29T08:56:37;102187.88;;;4.77;80.97
46045;BME280;31781;54.094;13.428;2023-01-29T08:58:38;102185.91;;;4.79;80.92
46045;BME280;31781;54.094;13.428;2023-01-29T09:00:40;102206.22;;;4.83;80.76
46045;BME280;31781;54.094;13.428;2023-01-29T09:02:41;102200.09;;;4.81;81.25
46045;BME280;31781;54.094;13.428;2023-01-29T09:04:43;102197.16;;;4.84;80.78
46045;BME280;31781;54.094;13.428;2023-01-29T09:06:45;102195.28;;;4.84;80.47
46045;BME280;31781;54.094;13.428;2023-01-29T09:08:47;102200.56;;;4.86;80.88
46045;BME280;31781;54.094;13.428;2023-01-29T09:10:48;102196.72;;;4.88;81.34
46045;BME280;31781;54.094;13.428;2023-01-29T09:12:51;102195.75;;;4.89;80.83
46045;BME280;31781;54.094;13.428;2023-01-29T09:14:53;102190.47;;;4.88;81.01
46045;BME280;31781;54.094;13.428;2023-01-29T09:16:55;102197.16;;;4.94;81.01
46045;BME280;31781;54.094;13.428;2023-01-29T09:18:57;102196.31;;;4.93;81.00
46045;BME280;31781;54.094;13.428;2023-01-29T09:20:59;102195.47;;;4.93;81.12
46045;BME280;31781;54.094;13.428;2023-01-29T09:23:03;102192.47;;;4.96;80.94
46045;BME280;31781;54.094;13.428;2023-01-29T09:25:06;102201.59;;;4.95;81.65
46045;BME280;31781;54.094;13.428;2023-01-29T09:27:08;102189.66;;;4.97;81.24
46045;BME280;31781;54.094;13.428;2023-01-29T09:29:12;102188.53;;;5.00;80.71
46045;BME280;31781;54.094;13.428;2023-01-29T09:31:13;102185.69;;;5.01;81.04
46045;BME280;31781;54.094;13.428;2023-01-29T09:33:15;102186.69;;;5.00;80.50
46045;BME280;31781;54.094;13.428;2023-01-29T09:35:17;102189.25;;;5.02;80.73
46045;BME280;31781;54.094;13.428;2023-01-29T09:37:19;102190.09;;;5.02;80.97
46045;BME280;31781;54.094;13.428;2023-01-29T09:39:22;102178.31;;;5.03;80.65
46045;BME280;31781;54.094;13.428;2023-01-29T09:41:35;102165.69;;;5.04;80.93
46045;BME280;31781;54.094;13.428;2023-01-29T09:43:44;102167.50;;;5.03;80.50
46045;BME280;31781;54.094;13.428;2023-01-29T09:45:52;102164.69;;;5.05;80.69
46045;BME280;31781;54.094;13.428;2023-01-29T09:47:58;102156.59;;;5.05;80.57
46045;BME280;31781;54.094;13.428;2023-01-29T09:50:03;102150.22;;;5.06;80.70
46045;BME280;31781;54.094;13.428;2023-01-29T09:52:11;102146.66;;;5.05;81.02
46045;BME280;31781;54.094;13.428;2023-01-29T09:54:20;102142.13;;;5.06;81.35
46045;BME280;31781;54.094;13.428;2023-01-29T09:56:23;102134.03;;;5.06;81.41
46045;BME280;31781;54.094;13.428;2023-01-29T09:58:29;102128.47;;;5.07;81.01
46045;BME280;31781;54.094;13.428;2023-01-29T10:00:35;102115.00;;;5.07;80.85
46045;BME280;31781;54.094;13.428;2023-01-29T10:02:53;102114.00;;;5.08;81.69
46045;BME280;31781;54.094;13.428;2023-01-29T10:05:23;102109.31;;;5.10;80.90
46045;BME280;31781;54.094;13.428;2023-01-29T10:07:49;102120.97;;;5.11;81.34
46045;BME280;31781;54.094;13.428;2023-01-29T10:10:07;102120.09;;;5.10;81.15
46045;BME280;31781;54.094;13.428;2023-01-29T10:12:26;102126.34;;;5.11;81.51
46045;BME280;31781;54.094;13.428;2023-01-29T10:14:39;102112.88;;;5.11;81.72
46045;BME280;31781;54.094;13.428;2023-01-29T10:16:58;102113.59;;;5.13;81.60
46045;BME280;31781;54.094;13.428;2023-01-29T10:19:23;102097.25;;;5.14;81.61
46045;BME280;31781;54.094;13.428;2023-01-29T10:21:57;102104.38;;;5.15;80.87
46045;BME280;31781;54.094;13.428;2023-01-29T10:24:12;102097.97;;;5.16;81.63
46045;BME280;31781;54.094;13.428;2023-01-29T10:26:22;102092.59;;;5.16;81.77
46045;BME280;31781;54.094;13.428;2023-01-29T10:28:32;102089.72;;;5.18;81.67
46045;BME280;31781;54.094;13.428;2023-01-29T10:30:38;102092.28;;;5.19;81.47
46045;BME280;31781;54.094;13.428;2023-01-29T10:32:40;102088.47;;;5.22;81.21
46045;BME280;31781;54.094;13.428;2023-01-29T10:34:47;102082.19;;;5.21;81.39
46045;BME280;31781;54.094;13.428;2023-01-29T10:36:50;102087.59;;;5.21;81.04
46045;BME280;31781;54.094;13.428;2023-01-29T10:38:51;102089.03;;;5.25;81.09
46045;BME280;31781;54.094;13.428;2023-01-29T10:40:59;102073.56;;;5.27;81.13
46045;BME280;31781;54.094;13.428;2023-01-29T10:43:11;102074.25;;;5.29;80.91
46045;BME280;31781;54.094;13.428;2023-01-29T10:45:22;102063.16;;;5.32;80.28
46045;BME280;31781;54.094;13.428;2023-01-29T10:47:41;102060.03;;;5.37;80.15
46045;BME280;31781;54.094;13.428;2023-01-29T10:49:59;102067.16;;;5.38;79.95
46045;BME280;31781;54.094;13.428;2023-01-29T10:52:12;102067.84;;;5.40;80.54
46045;BME280;31781;54.094;13.428;2023-01-29T10:54:28;102073.97;;;5.42;79.71
46045;BME280;31781;54.094;13.428;2023-01-29T10:56:44;102073.81;;;5.44;80.03